sensor_id;sensor_type;location;lat;lon;timestamp;temperature;humidity
1476;DHT22;730;48.870;12.542;2023-08-17T00:00:17;24.10;1.00
1476;DHT22;730;48.870;12.542;2023-08-17T00:02:44;24.10;1.00
1476;DHT22;730;48.870;12.542;2023-08-17T00:05:11;24.00;1.00
1476;DHT22;730;48.870;12.542;2023-08-17T00:07:37;24.00;1.00
1476;DHT22;730;48.870;12.542;2023-08-17T00:10:04;24.00;1.00
1476;DHT22;730;48.870;12.542;2023-08-17T00:12:30;23.90;1.00
1476;DHT22;730;48.870;12.542;2023-08-17T00:14:56;23.90;1.00
1476;DHT22;730;48.870;12.542;2023-08-17T00:17:22;23.80;1.00
1476;DHT22;730;48.870;12.542;2023-08-17T00:19:48;23.70;1.00
1476;DHT22;730;48.870;12.542;2023-08-17T00:22:19;23.70;1.00
1476;DHT22;730;48.870;12.542;2023-08-17T00:24:45;23.70;1.00
1476;DHT22;730;48.870;12.542;2023-08-17T00:27:12;23.70;1.00
1476;DHT22;730;48.870;12.542;2023-08-17T00:29:38;23.60;1.00
1476;DHT22;730;48.870;12.542;2023-08-17T00:32:04;23.60;1.00
1476;DHT22;730;48.870;12.542;2023-08-17T00:34:30;23.60;1.00
1476;DHT22;730;48.870;12.542;2023-08-17T00:36:56;23.50;1.00
1476;DHT22;730;48.870;12.542;2023-08-17T00:39:22;23.50;1.00
1476;DHT22;730;48.870;12.542;2023-08-17T00:41:48;23.50;1.00
1476;DHT22;730;48.870;12.542;2023-08-17T00:44:14;23.40;1.00
1476;DHT22;730;48.870;12.542;2023-08-17T00:46:40;23.40;1.00
1476;DHT22;730;48.870;12.542;2023-08-17T00:49:06;23.30;1.00
1476;DHT22;730;48.870;12.542;2023-08-17T00:51:33;23.30;1.00
1476;DHT22;730;48.870;12.542;2023-08-17T00:54:01;23.20;1.00
1476;DHT22;730;48.870;12.542;2023-08-17T00:56:27;23.20;1.00
1476;DHT22;730;48.870;12.542;2023-08-17T00:58:55;23.20;1.00
1476;DHT22;730;48.870;12.542;2023-08-17T01:01:23;23.20;1.00
1476;DHT22;730;48.870;12.542;2023-08-17T01:03:49;23.10;1.00
1476;DHT22;730;48.870;12.542;2023-08-17T01:06:15;23.10;1.00
1476;DHT22;730;48.870;12.542;2023-08-17T01:08:42;23.10;1.00
1476;DHT22;730;48.870;12.542;2023-08-17T01:16:35;23.00;1.00
1476;DHT22;730;48.870;12.542;2023-08-17T01:19:08;23.00;1.00
1476;DHT22;730;48.870;12.542;2023-08-17T01:21:42;22.90;1.00
1476;DHT22;730;48.870;12.542;2023-08-17T01:24:11;22.90;1.00
1476;DHT22;730;48.870;12.542;2023-08-17T01:26:37;22.90;1.00
1476;DHT22;730;48.870;12.542;2023-08-17T01:29:03;22.80;1.00
1476;DHT22;730;48.870;12.542;2023-08-17T01:31:44;22.80;1.00
1476;DHT22;730;48.870;12.542;2023-08-17T01:34:15;22.80;1.00
1476;DHT22;730;48.870;12.542;2023-08-17T01:36:52;22.70;1.00
1476;DHT22;730;48.870;12.542;2023-08-17T01:39:25;22.70;1.00
1476;DHT22;730;48.870;12.542;2023-08-17T01:41:52;22.60;1.00
1476;DHT22;730;48.870;12.542;2023-08-17T01:44:21;22.60;1.00
1476;DHT22;730;48.870;12.542;2023-08-17T01:46:48;22.50;1.00
1476;DHT22;730;48.870;12.542;2023-08-17T01:49:14;22.50;1.00
1476;DHT22;730;48.870;12.542;2023-08-17T01:51:40;22.50;1.00
1476;DHT22;730;48.870;12.542;2023-08-17T01:54:06;22.50;1.00
1476;DHT22;730;48.870;12.542;2023-08-17T01:56:33;22.50;1.00
1476;DHT22;730;48.870;12.542;2023-08-17T01:58:59;22.50;1.00
1476;DHT22;730;48.870;12.542;2023-08-17T02:01:25;22.50;1.00
1476;DHT22;730;48.870;12.542;2023-08-17T02:03:51;22.50;1.00
1476;DHT22;730;48.870;12.542;2023-08-17T02:06:17;22.50;1.00
1476;DHT22;730;48.870;12.542;2023-08-17T02:08:45;22.60;1.00
1476;DHT22;730;48.870;12.542;2023-08-17T02:11:12;22.60;1.00
1476;DHT22;730;48.870;12.542;2023-08-17T02:13:38;22.60;1.00
1476;DHT22;730;48.870;12.542;2023-08-17T02:16:04;22.60;1.00
1476;DHT22;730;48.870;12.542;2023-08-17T02:18:30;22.60;1.00
1476;DHT22;730;48.870;12.542;2023-08-17T02:20:58;22.60;1.00
1476;DHT22;730;48.870;12.542;2023-08-17T02:23:24;22.70;1.00
1476;DHT22;730;48.870;12.542;2023-08-17T02:25:51;22.70;1.00
1476;DHT22;730;48.870;12.542;2023-08-17T02:28:17;22.70;1.00
1476;DHT22;730;48.870;12.542;2023-08-17T02:30:45;22.70;1.00
1476;DHT22;730;48.870;12.542;2023-08-17T02:33:12;22.70;1.00
1476;DHT22;730;48.870;12.542;2023-08-17T02:35:38;22.70;1.00
1476;DHT22;730;48.870;12.542;2023-08-17T02:38:04;22.70;1.00
1476;DHT22;730;48.870;12.542;2023-08-17T02:40:30;22.70;1.00
1476;DHT22;730;48.870;12.542;2023-08-17T02:42:56;22.70;1.00
1476;DHT22;730;48.870;12.542;2023-08-17T02:45:22;22.60;1.00
1476;DHT22;730;48.870;12.542;2023-08-17T02:47:48;22.60;1.00
1476;DHT22;730;48.870;12.542;2023-08-17T02:50:14;22.60;1.00
1476;DHT22;730;48.870;12.542;2023-08-17T02:52:40;22.60;1.00
1476;DHT22;730;48.870;12.542;2023-08-17T02:55:06;22.60;1.00
1476;DHT22;730;48.870;12.542;2023-08-17T02:57:32;22.70;1.00
1476;DHT22;730;48.870;12.542;2023-08-17T02:59:58;22.70;1.00
1476;DHT22;730;48.870;12.542;2023-08-17T03:02:24;22.70;1.00
1476;DHT22;730;48.870;12.542;2023-08-17T03:04:50;22.70;1.00
1476;DHT22;730;48.870;12.542;2023-08-17T03:07:17;22.70;1.00
1476;DHT22;730;48.870;12.542;2023-08-17T03:09:43;22.70;1.00
1476;DHT22;730;48.870;12.542;2023-08-17T03:12:09;22.70;1.00
1476;DHT22;730;48.870;12.542;2023-08-17T03:14:35;22.70;1.00
1476;DHT22;730;48.870;12.542;2023-08-17T03:17:01;22.80;1.00
1476;DHT22;730;48.870;12.542;2023-08-17T03:19:27;22.80;1.00
1476;DHT22;730;48.870;12.542;2023-08-17T03:21:53;22.80;1.00
1476;DHT22;730;48.870;12.542;2023-08-17T03:24:19;22.80;1.00
1476;DHT22;730;48.870;12.542;2023-08-17T03:26:45;22.80;1.00
1476;DHT22;730;48.870;12.542;2023-08-17T03:29:11;22.70;1.00
1476;DHT22;730;48.870;12.542;2023-08-17T03:31:37;22.70;1.00
1476;DHT22;730;48.870;12.542;2023-08-17T03:34:03;22.70;1.00
1476;DHT22;730;48.870;12.542;2023-08-17T03:36:29;22.60;1.00
1476;DHT22;730;48.870;12.542;2023-08-17T03:38:55;22.50;1.00
1476;DHT22;730;48.870;12.542;2023-08-17T03:41:22;22.50;1.00
1476;DHT22;730;48.870;12.542;2023-08-17T03:43:50;22.40;1.00
1476;DHT22;730;48.870;12.542;2023-08-17T03:46:16;22.40;1.00
1476;DHT22;730;48.870;12.542;2023-08-17T03:48:42;22.30;1.00
1476;DHT22;730;48.870;12.542;2023-08-17T03:51:08;22.30;1.00
1476;DHT22;730;48.870;12.542;2023-08-17T03:53:34;22.20;1.00
1476;DHT22;730;48.870;12.542;2023-08-17T03:56:00;22.20;1.00
1476;DHT22;730;48.870;12.542;2023-08-17T03:58:26;22.20;1.00
1476;DHT22;730;48.870;12.542;2023-08-17T04:00:57;22.20;1.00
1476;DHT22;730;48.870;12.542;2023-08-17T04:03:23;22.10;1.00
1476;DHT22;730;48.870;12.542;2023-08-17T04:05:49;22.10;1.00
1476;DHT22;730;48.870;12.542;2023-08-17T04:08:15;22.00;1.00
1476;DHT22;730;48.870;12.542;2023-08-17T04:10:41;22.00;1.00
1476;DHT22;730;48.870;12.542;2023-08-17T04:13:07;21.90;1.00
1476;DHT22;730;48.870;12.542;2023-08-17T04:15:33;21.80;1.00
1476;DHT22;730;48.870;12.542;2023-08-17T04:17:59;21.80;1.00
1476;DHT22;730;48.870;12.542;2023-08-17T04:20:25;21.80;1.00
1476;DHT22;730;48.870;12.542;2023-08-17T04:22:51;21.80;1.00
1476;DHT22;730;48.870;12.542;2023-08-17T04:25:18;21.80;1.00
1476;DHT22;730;48.870;12.542;2023-08-17T04:27:44;21.80;1.00
1476;DHT22;730;48.870;12.542;2023-08-17T04:30:10;21.70;1.00
1476;DHT22;730;48.870;12.542;2023-08-17T04:32:36;21.70;1.00
1476;DHT22;730;48.870;12.542;2023-08-17T04:35:02;21.80;1.00
1476;DHT22;730;48.870;12.542;2023-08-17T04:37:28;21.70;1.00
1476;DHT22;730;48.870;12.542;2023-08-17T04:39:54;21.70;1.00
1476;DHT22;730;48.870;12.542;2023-08-17T04:42:20;21.70;1.00
1476;DHT22;730;48.870;12.542;2023-08-17T04:44:46;21.70;1.00
1476;DHT22;730;48.870;12.542;2023-08-17T04:47:12;21.70;1.00
1476;DHT22;730;48.870;12.542;2023-08-17T04:49:38;21.80;1.00
1476;DHT22;730;48.870;12.542;2023-08-17T04:52:05;21.80;1.00
1476;DHT22;730;48.870;12.542;2023-08-17T04:54:31;21.80;1.00
1476;DHT22;730;48.870;12.542;2023-08-17T04:56:57;21.80;1.00
1476;DHT22;730;48.870;12.542;2023-08-17T04:59:23;21.90;1.00
1476;DHT22;730;48.870;12.542;2023-08-17T05:01:49;21.90;1.00
1476;DHT22;730;48.870;12.542;2023-08-17T05:04:15;22.00;1.00
1476;DHT22;730;48.870;12.542;2023-08-17T05:06:41;22.10;1.00
1476;DHT22;730;48.870;12.542;2023-08-17T05:09:07;22.20;1.00
1476;DHT22;730;48.870;12.542;2023-08-17T05:11:33;22.30;1.00
1476;DHT22;730;48.870;12.542;2023-08-17T05:13:59;22.50;1.00
1476;DHT22;730;48.870;12.542;2023-08-17T05:16:25;22.60;1.00
1476;DHT22;730;48.870;12.542;2023-08-17T05:18:51;22.80;1.00
1476;DHT22;730;48.870;12.542;2023-08-17T05:21:17;23.00;1.00
1476;DHT22;730;48.870;12.542;2023-08-17T05:23:43;23.20;1.00
1476;DHT22;730;48.870;12.542;2023-08-17T05:26:09;23.40;1.00
1476;DHT22;730;48.870;12.542;2023-08-17T05:28:35;23.60;1.00
1476;DHT22;730;48.870;12.542;2023-08-17T05:31:05;23.80;1.00
1476;DHT22;730;48.870;12.542;2023-08-17T05:33:32;24.00;1.00
1476;DHT22;730;48.870;12.542;2023-08-17T05:35:59;24.20;1.00
1476;DHT22;730;48.870;12.542;2023-08-17T05:38:25;24.40;1.00
1476;DHT22;730;48.870;12.542;2023-08-17T05:40:57;24.70;1.00
1476;DHT22;730;48.870;12.542;2023-08-17T05:43:24;24.90;1.00
1476;DHT22;730;48.870;12.542;2023-08-17T05:45:50;25.20;1.00
1476;DHT22;730;48.870;12.542;2023-08-17T05:48:20;25.40;1.00
1476;DHT22;730;48.870;12.542;2023-08-17T05:50:47;25.60;1.00
1476;DHT22;730;48.870;12.542;2023-08-17T05:53:13;25.90;1.00
1476;DHT22;730;48.870;12.542;2023-08-17T05:55:39;26.20;1.00
1476;DHT22;730;48.870;12.542;2023-08-17T05:58:05;26.40;1.00
1476;DHT22;730;48.870;12.542;2023-08-17T06:00:31;26.60;1.00
1476;DHT22;730;48.870;12.542;2023-08-17T06:02:57;26.90;1.00
1476;DHT22;730;48.870;12.542;2023-08-17T06:05:28;27.10;1.00
1476;DHT22;730;48.870;12.542;2023-08-17T06:07:57;27.30;1.00
1476;DHT22;730;48.870;12.542;2023-08-17T06:10:23;27.50;1.00
1476;DHT22;730;48.870;12.542;2023-08-17T06:12:53;27.60;1.00
1476;DHT22;730;48.870;12.542;2023-08-17T06:15:19;27.70;1.00
1476;DHT22;730;48.870;12.542;2023-08-17T06:17:46;27.80;1.00
1476;DHT22;730;48.870;12.542;2023-08-17T06:20:12;27.90;1.00
1476;DHT22;730;48.870;12.542;2023-08-17T06:22:38;28.10;1.00
1476;DHT22;730;48.870;12.542;2023-08-17T06:25:05;28.20;1.00
1476;DHT22;730;48.870;12.542;2023-08-17T06:27:32;28.40;1.00
1476;DHT22;730;48.870;12.542;2023-08-17T06:29:59;28.50;1.00
1476;DHT22;730;48.870;12.542;2023-08-17T06:32:25;28.70;1.00
1476;DHT22;730;48.870;12.542;2023-08-17T06:34:51;28.80;1.00
1476;DHT22;730;48.870;12.542;2023-08-17T06:37:20;28.90;1.00
1476;DHT22;730;48.870;12.542;2023-08-17T06:39:46;29.00;1.00
1476;DHT22;730;48.870;12.542;2023-08-17T06:42:12;29.20;1.00
1476;DHT22;730;48.870;12.542;2023-08-17T06:44:38;29.30;1.00
1476;DHT22;730;48.870;12.542;2023-08-17T06:47:04;29.20;1.00
1476;DHT22;730;48.870;12.542;2023-08-17T06:49:30;29.20;1.00
1476;DHT22;730;48.870;12.542;2023-08-17T06:51:56;29.10;1.00
1476;DHT22;730;48.870;12.542;2023-08-17T06:54:22;29.10;1.00
1476;DHT22;730;48.870;12.542;2023-08-17T06:56:48;29.00;1.00
1476;DHT22;730;48.870;12.542;2023-08-17T06:59:14;28.90;1.00
1476;DHT22;730;48.870;12.542;2023-08-17T07:01:40;28.90;1.00
1476;DHT22;730;48.870;12.542;2023-08-17T07:04:06;28.90;1.00
1476;DHT22;730;48.870;12.542;2023-08-17T07:06:33;28.80;1.00
1476;DHT22;730;48.870;12.542;2023-08-17T07:08:59;28.80;1.00
1476;DHT22;730;48.870;12.542;2023-08-17T07:11:25;28.90;1.00
1476;DHT22;730;48.870;12.542;2023-08-17T07:13:51;29.00;1.00
1476;DHT22;730;48.870;12.542;2023-08-17T07:16:17;29.10;1.00
1476;DHT22;730;48.870;12.542;2023-08-17T07:18:43;29.10;1.00
1476;DHT22;730;48.870;12.542;2023-08-17T07:21:09;29.30;1.00
1476;DHT22;730;48.870;12.542;2023-08-17T07:23:35;29.50;1.00
1476;DHT22;730;48.870;12.542;2023-08-17T07:26:01;29.60;1.00
1476;DHT22;730;48.870;12.542;2023-08-17T07:28:27;29.80;1.00
1476;DHT22;730;48.870;12.542;2023-08-17T07:30:53;29.80;1.00
1476;DHT22;730;48.870;12.542;2023-08-17T07:33:19;30.10;1.00
1476;DHT22;730;48.870;12.542;2023-08-17T07:35:45;30.30;1.00
1476;DHT22;730;48.870;12.542;2023-08-17T07:38:11;30.50;1.00
1476;DHT22;730;48.870;12.542;2023-08-17T07:40:37;30.70;1.00
1476;DHT22;730;48.870;12.542;2023-08-17T07:43:03;30.90;1.00
1476;DHT22;730;48.870;12.542;2023-08-17T07:45:30;31.10;1.00
1476;DHT22;730;48.870;12.542;2023-08-17T07:47:56;31.40;1.00
1476;DHT22;730;48.870;12.542;2023-08-17T07:50:22;31.40;1.00
1476;DHT22;730;48.870;12.542;2023-08-17T07:52:48;31.30;1.00
1476;DHT22;730;48.870;12.542;2023-08-17T07:55:14;31.30;1.00
1476;DHT22;730;48.870;12.542;2023-08-17T07:57:40;31.30;1.00
1476;DHT22;730;48.870;12.542;2023-08-17T08:00:06;31.40;1.00
1476;DHT22;730;48.870;12.542;2023-08-17T08:02:32;31.40;1.00
1476;DHT22;730;48.870;12.542;2023-08-17T08:04:58;31.50;1.00
1476;DHT22;730;48.870;12.542;2023-08-17T08:07:24;31.50;1.00
1476;DHT22;730;48.870;12.542;2023-08-17T08:09:50;31.60;1.00
1476;DHT22;730;48.870;12.542;2023-08-17T08:12:16;31.60;1.00
1476;DHT22;730;48.870;12.542;2023-08-17T08:14:42;31.70;1.00
1476;DHT22;730;48.870;12.542;2023-08-17T08:17:08;31.80;1.00
1476;DHT22;730;48.870;12.542;2023-08-17T08:19:35;31.90;1.00
1476;DHT22;730;48.870;12.542;2023-08-17T08:22:01;32.10;1.00
1476;DHT22;730;48.870;12.542;2023-08-17T08:24:28;32.20;1.00
1476;DHT22;730;48.870;12.542;2023-08-17T08:27:00;32.20;1.00
1476;DHT22;730;48.870;12.542;2023-08-17T08:29:26;32.20;1.00
1476;DHT22;730;48.870;12.542;2023-08-17T08:31:53;32.20;1.00
1476;DHT22;730;48.870;12.542;2023-08-17T08:34:19;32.20;1.00
1476;DHT22;730;48.870;12.542;2023-08-17T08:36:45;32.20;1.00
1476;DHT22;730;48.870;12.542;2023-08-17T08:39:11;32.40;1.00
1476;DHT22;730;48.870;12.542;2023-08-17T08:41:38;32.40;1.00
1476;DHT22;730;48.870;12.542;2023-08-17T08:44:04;32.40;1.00
1476;DHT22;730;48.870;12.542;2023-08-17T08:46:33;32.50;1.00
1476;DHT22;730;48.870;12.542;2023-08-17T08:49:00;32.60;1.00
1476;DHT22;730;48.870;12.542;2023-08-17T08:51:29;32.70;1.00
1476;DHT22;730;48.870;12.542;2023-08-17T08:54:03;32.90;1.00
1476;DHT22;730;48.870;12.542;2023-08-17T08:56:33;33.00;1.00
1476;DHT22;730;48.870;12.542;2023-08-17T08:59:02;33.10;1.00
1476;DHT22;730;48.870;12.542;2023-08-17T09:01:30;33.10;1.00
1476;DHT22;730;48.870;12.542;2023-08-17T09:03:59;33.20;1.00
1476;DHT22;730;48.870;12.542;2023-08-17T09:06:27;33.20;1.00
1476;DHT22;730;48.870;12.542;2023-08-17T09:08:55;33.10;1.00
1476;DHT22;730;48.870;12.542;2023-08-17T09:11:22;33.20;1.00
1476;DHT22;730;48.870;12.542;2023-08-17T09:13:48;33.10;1.00
1476;DHT22;730;48.870;12.542;2023-08-17T09:16:14;33.10;1.00
1476;DHT22;730;48.870;12.542;2023-08-17T09:18:40;33.10;1.00
1476;DHT22;730;48.870;12.542;2023-08-17T09:21:06;33.20;1.00
1476;DHT22;730;48.870;12.542;2023-08-17T09:23:32;33.20;1.00
1476;DHT22;730;48.870;12.542;2023-08-17T09:26:07;33.30;1.00
1476;DHT22;730;48.870;12.542;2023-08-17T09:28:34;33.30;1.00
1476;DHT22;730;48.870;12.542;2023-08-17T09:31:04;33.40;1.00
1476;DHT22;730;48.870;12.542;2023-08-17T09:33:31;33.50;1.00
1476;DHT22;730;48.870;12.542;2023-08-17T09:35:58;33.70;1.00
1476;DHT22;730;48.870;12.542;2023-08-17T09:38:25;33.80;1.00
1476;DHT22;730;48.870;12.542;2023-08-17T09:40:52;34.00;1.00
1476;DHT22;730;48.870;12.542;2023-08-17T09:43:18;34.10;1.00
1476;DHT22;730;48.870;12.542;2023-08-17T09:45:54;34.20;1.00
1476;DHT22;730;48.870;12.542;2023-08-17T09:48:20;34.30;1.00
1476;DHT22;730;48.870;12.542;2023-08-17T09:50:47;34.40;1.00
1476;DHT22;730;48.870;12.542;2023-08-17T09:53:15;34.40;1.00
1476;DHT22;730;48.870;12.542;2023-08-17T09:55:42;34.40;1.00
1476;DHT22;730;48.870;12.542;2023-08-17T09:58:08;34.40;1.00
1476;DHT22;730;48.870;12.542;2023-08-17T10:00:36;34.50;1.00
1476;DHT22;730;48.870;12.542;2023-08-17T10:03:03;34.60;1.00
1476;DHT22;730;48.870;12.542;2023-08-17T10:05:34;34.60;1.00
1476;DHT22;730;48.870;12.542;2023-08-17T10:08:02;34.60;1.00
1476;DHT22;730;48.870;12.542;2023-08-17T10:10:29;34.60;1.00
1476;DHT22;730;48.870;12.542;2023-08-17T10:15:57;34.70;1.00
1476;DHT22;730;48.870;12.542;2023-08-17T10:18:44;34.70;1.00
1476;DHT22;730;48.870;12.542;2023-08-17T10:21:27;34.80;1.00
1476;DHT22;730;48.870;12.542;2023-08-17T10:23:57;34.80;1.00
1476;DHT22;730;48.870;12.542;2023-08-17T10:26:23;34.90;1.00
1476;DHT22;730;48.870;12.542;2023-08-17T10:28:51;34.90;1.00
1476;DHT22;730;48.870;12.542;2023-08-17T10:31:17;35.00;1.00
1476;DHT22;730;48.870;12.542;2023-08-17T10:33:44;34.90;1.00
1476;DHT22;730;48.870;12.542;2023-08-17T10:36:13;34.90;1.00
1476;DHT22;730;48.870;12.542;2023-08-17T10:38:40;35.00;1.00
1476;DHT22;730;48.870;12.542;2023-08-17T10:41:11;35.10;1.00
1476;DHT22;730;48.870;12.542;2023-08-17T10:43:53;35.10;1.00
1476;DHT22;730;48.870;12.542;2023-08-17T10:46:19;35.10;1.00
1476;DHT22;730;48.870;12.542;2023-08-17T10:48:45;35.20;1.00
1476;DHT22;730;48.870;12.542;2023-08-17T10:51:11;35.20;1.00
1476;DHT22;730;48.870;12.542;2023-08-17T10:53:42;35.30;1.00
1476;DHT22;730;48.870;12.542;2023-08-17T10:56:12;35.30;1.00
1476;DHT22;730;48.870;12.542;2023-08-17T10:58:39;35.40;1.00
1476;DHT22;730;48.870;12.542;2023-08-17T11:01:06;35.40;1.00
1476;DHT22;730;48.870;12.542;2023-08-17T11:03:33;35.40;1.00
1476;DHT22;730;48.870;12.542;2023-08-17T11:06:17;35.40;1.00
1476;DHT22;730;48.870;12.542;2023-08-17T11:08:54;35.40;1.00
1476;DHT22;730;48.870;12.542;2023-08-17T11:11:22;35.30;1.00
1476;DHT22;730;48.870;12.542;2023-08-17T11:13:52;35.30;1.00
1476;DHT22;730;48.870;12.542;2023-08-17T11:16:18;35.40;1.00
1476;DHT22;730;48.870;12.542;2023-08-17T11:18:46;35.50;1.00
1476;DHT22;730;48.870;12.542;2023-08-17T11:21:13;35.50;1.00
1476;DHT22;730;48.870;12.542;2023-08-17T11:23:41;35.60;1.00
1476;DHT22;730;48.870;12.542;2023-08-17T11:26:07;35.70;1.00
1476;DHT22;730;48.870;12.542;2023-08-17T11:28:34;35.90;1.00
1476;DHT22;730;48.870;12.542;2023-08-17T11:31:05;36.00;1.00
1476;DHT22;730;48.870;12.542;2023-08-17T11:33:33;36.10;1.00
1476;DHT22;730;48.870;12.542;2023-08-17T11:36:00;36.30;1.00
1476;DHT22;730;48.870;12.542;2023-08-17T11:38:31;36.30;1.00
1476;DHT22;730;48.870;12.542;2023-08-17T11:40:58;36.40;1.00
1476;DHT22;730;48.870;12.542;2023-08-17T11:43:25;36.40;1.00
1476;DHT22;730;48.870;12.542;2023-08-17T11:45:51;36.50;1.00
1476;DHT22;730;48.870;12.542;2023-08-17T11:48:20;36.60;1.00
1476;DHT22;730;48.870;12.542;2023-08-17T11:50:47;36.70;1.00
1476;DHT22;730;48.870;12.542;2023-08-17T11:53:13;36.60;1.00
1476;DHT22;730;48.870;12.542;2023-08-17T11:55:39;36.70;1.00
1476;DHT22;730;48.870;12.542;2023-08-17T11:58:05;36.70;1.00
1476;DHT22;730;48.870;12.542;2023-08-17T12:00:39;36.70;1.00
1476;DHT22;730;48.870;12.542;2023-08-17T12:03:05;36.70;1.00
1476;DHT22;730;48.870;12.542;2023-08-17T12:05:32;36.70;1.00
1476;DHT22;730;48.870;12.542;2023-08-17T12:08:01;36.80;1.00
1476;DHT22;730;48.870;12.542;2023-08-17T12:10:28;36.70;1.00
1476;DHT22;730;48.870;12.542;2023-08-17T12:12:58;36.70;1.00
1476;DHT22;730;48.870;12.542;2023-08-17T12:15:33;36.80;1.00
1476;DHT22;730;48.870;12.542;2023-08-17T12:18:03;36.80;1.00
1476;DHT22;730;48.870;12.542;2023-08-17T12:20:32;37.00;1.00
1476;DHT22;730;48.870;12.542;2023-08-17T12:22:58;37.10;1.00
1476;DHT22;730;48.870;12.542;2023-08-17T12:25:25;37.20;1.00
1476;DHT22;730;48.870;12.542;2023-08-17T12:27:51;37.30;1.00
1476;DHT22;730;48.870;12.542;2023-08-17T12:30:31;37.20;1.00
1476;DHT22;730;48.870;12.542;2023-08-17T12:32:59;37.40;1.00
1476;DHT22;730;48.870;12.542;2023-08-17T12:35:25;37.40;1.00
1476;DHT22;730;48.870;12.542;2023-08-17T12:37:55;37.40;1.00
1476;DHT22;730;48.870;12.542;2023-08-17T12:40:21;37.40;1.00
1476;DHT22;730;48.870;12.542;2023-08-17T12:42:48;37.30;1.00
1476;DHT22;730;48.870;12.542;2023-08-17T12:45:16;37.30;1.00
1476;DHT22;730;48.870;12.542;2023-08-17T12:47:42;37.40;1.00
1476;DHT22;730;48.870;12.542;2023-08-17T12:50:08;37.60;1.00
1476;DHT22;730;48.870;12.542;2023-08-17T12:52:34;37.50;1.00
1476;DHT22;730;48.870;12.542;2023-08-17T12:55:01;37.60;1.00
1476;DHT22;730;48.870;12.542;2023-08-17T12:57:27;37.70;1.00
1476;DHT22;730;48.870;12.542;2023-08-17T12:59:54;37.90;1.00
1476;DHT22;730;48.870;12.542;2023-08-17T13:02:20;38.00;1.00
1476;DHT22;730;48.870;12.542;2023-08-17T13:04:46;38.20;1.00
1476;DHT22;730;48.870;12.542;2023-08-17T13:07:13;38.10;1.00
1476;DHT22;730;48.870;12.542;2023-08-17T13:09:39;38.10;1.00
1476;DHT22;730;48.870;12.542;2023-08-17T13:12:05;38.00;1.00
1476;DHT22;730;48.870;12.542;2023-08-17T13:14:31;38.10;1.00
1476;DHT22;730;48.870;12.542;2023-08-17T13:16:57;38.10;1.00
1476;DHT22;730;48.870;12.542;2023-08-17T13:19:23;38.20;1.00
1476;DHT22;730;48.870;12.542;2023-08-17T13:21:49;38.30;1.00
1476;DHT22;730;48.870;12.542;2023-08-17T13:24:15;38.50;1.00
1476;DHT22;730;48.870;12.542;2023-08-17T13:26:41;38.60;1.00
1476;DHT22;730;48.870;12.542;2023-08-17T13:29:07;38.70;1.00
1476;DHT22;730;48.870;12.542;2023-08-17T13:31:35;38.60;1.00
1476;DHT22;730;48.870;12.542;2023-08-17T13:34:01;38.60;1.00
1476;DHT22;730;48.870;12.542;2023-08-17T13:36:27;38.70;1.00
1476;DHT22;730;48.870;12.542;2023-08-17T13:38:54;38.80;1.00
1476;DHT22;730;48.870;12.542;2023-08-17T13:41:20;38.80;1.00
1476;DHT22;730;48.870;12.542;2023-08-17T13:43:46;38.80;1.00
1476;DHT22;730;48.870;12.542;2023-08-17T13:46:12;38.90;1.00
1476;DHT22;730;48.870;12.542;2023-08-17T13:48:38;39.10;1.00
1476;DHT22;730;48.870;12.542;2023-08-17T13:51:05;39.30;1.00
1476;DHT22;730;48.870;12.542;2023-08-17T13:53:31;39.30;1.00
1476;DHT22;730;48.870;12.542;2023-08-17T13:56:16;39.20;1.00
1476;DHT22;730;48.870;12.542;2023-08-17T13:58:42;39.20;1.00
1476;DHT22;730;48.870;12.542;2023-08-17T14:01:08;39.20;1.00
1476;DHT22;730;48.870;12.542;2023-08-17T14:03:35;39.20;1.00
1476;DHT22;730;48.870;12.542;2023-08-17T14:06:02;39.20;1.00
1476;DHT22;730;48.870;12.542;2023-08-17T14:08:28;39.20;1.00
1476;DHT22;730;48.870;12.542;2023-08-17T14:10:54;39.20;1.00
1476;DHT22;730;48.870;12.542;2023-08-17T14:13:20;39.50;1.00
1476;DHT22;730;48.870;12.542;2023-08-17T14:15:46;39.70;1.00
1476;DHT22;730;48.870;12.542;2023-08-17T14:18:12;39.90;1.00
1476;DHT22;730;48.870;12.542;2023-08-17T14:20:38;40.20;1.00
1476;DHT22;730;48.870;12.542;2023-08-17T14:23:04;40.50;1.00
1476;DHT22;730;48.870;12.542;2023-08-17T14:25:30;40.60;1.00
1476;DHT22;730;48.870;12.542;2023-08-17T14:27:57;40.70;1.00
1476;DHT22;730;48.870;12.542;2023-08-17T14:30:24;40.70;1.00
1476;DHT22;730;48.870;12.542;2023-08-17T14:32:50;40.80;1.00
1476;DHT22;730;48.870;12.542;2023-08-17T14:35:16;40.80;1.00
1476;DHT22;730;48.870;12.542;2023-08-17T14:37:42;41.00;1.00
1476;DHT22;730;48.870;12.542;2023-08-17T14:40:08;41.20;1.00
1476;DHT22;730;48.870;12.542;2023-08-17T14:42:34;41.40;1.00
1476;DHT22;730;48.870;12.542;2023-08-17T14:45:00;41.80;1.00
1476;DHT22;730;48.870;12.542;2023-08-17T14:47:26;42.10;1.00
1476;DHT22;730;48.870;12.542;2023-08-17T14:49:52;42.50;1.00
1476;DHT22;730;48.870;12.542;2023-08-17T14:52:19;43.00;1.00
1476;DHT22;730;48.870;12.542;2023-08-17T14:54:45;42.60;1.00
1476;DHT22;730;48.870;12.542;2023-08-17T14:57:11;42.30;1.00
1476;DHT22;730;48.870;12.542;2023-08-17T14:59:37;41.90;1.00
1476;DHT22;730;48.870;12.542;2023-08-17T15:02:03;41.80;1.00
1476;DHT22;730;48.870;12.542;2023-08-17T15:04:29;41.80;1.00
1476;DHT22;730;48.870;12.542;2023-08-17T15:06:55;42.20;1.00
1476;DHT22;730;48.870;12.542;2023-08-17T15:09:21;42.80;1.00
1476;DHT22;730;48.870;12.542;2023-08-17T15:11:47;43.40;1.00
1476;DHT22;730;48.870;12.542;2023-08-17T15:14:14;43.70;1.00
1476;DHT22;730;48.870;12.542;2023-08-17T15:16:40;43.80;1.00
1476;DHT22;730;48.870;12.542;2023-08-17T15:19:06;43.90;1.00
1476;DHT22;730;48.870;12.542;2023-08-17T15:21:32;43.50;1.00
1476;DHT22;730;48.870;12.542;2023-08-17T15:23:58;43.20;1.00
1476;DHT22;730;48.870;12.542;2023-08-17T15:26:24;42.80;1.00
1476;DHT22;730;48.870;12.542;2023-08-17T15:28:50;42.00;1.00
1476;DHT22;730;48.870;12.542;2023-08-17T15:31:16;41.10;1.00
1476;DHT22;730;48.870;12.542;2023-08-17T15:33:42;40.30;1.00
1476;DHT22;730;48.870;12.542;2023-08-17T15:36:08;39.70;1.00
1476;DHT22;730;48.870;12.542;2023-08-17T15:38:34;39.10;1.00
1476;DHT22;730;48.870;12.542;2023-08-17T15:41:00;38.70;1.00
1476;DHT22;730;48.870;12.542;2023-08-17T15:43:26;38.30;1.00
1476;DHT22;730;48.870;12.542;2023-08-17T15:45:52;38.00;1.00
1476;DHT22;730;48.870;12.542;2023-08-17T15:48:19;37.70;1.00
1476;DHT22;730;48.870;12.542;2023-08-17T15:50:45;37.50;1.00
1476;DHT22;730;48.870;12.542;2023-08-17T15:53:11;37.20;1.00
1476;DHT22;730;48.870;12.542;2023-08-17T15:55:37;36.90;1.00
1476;DHT22;730;48.870;12.542;2023-08-17T15:58:03;36.60;1.00
1476;DHT22;730;48.870;12.542;2023-08-17T16:00:29;36.40;1.00
1476;DHT22;730;48.870;12.542;2023-08-17T16:02:55;36.20;1.00
1476;DHT22;730;48.870;12.542;2023-08-17T16:05:22;35.90;1.00
1476;DHT22;730;48.870;12.542;2023-08-17T16:07:49;35.70;1.00
1476;DHT22;730;48.870;12.542;2023-08-17T16:10:15;35.50;1.00
1476;DHT22;730;48.870;12.542;2023-08-17T16:12:41;35.40;1.00
1476;DHT22;730;48.870;12.542;2023-08-17T16:15:07;35.20;1.00
1476;DHT22;730;48.870;12.542;2023-08-17T16:17:33;35.00;1.00
1476;DHT22;730;48.870;12.542;2023-08-17T16:19:59;34.80;1.00
1476;DHT22;730;48.870;12.542;2023-08-17T16:22:25;34.70;1.00